createdAt,value
2018-09-30T00:01:57.636Z,63.85
2018-09-30T00:04:26.203Z,63.78
2018-09-30T00:06:54.924Z,62.80
2018-09-30T00:09:30.288Z,62.85
2018-09-30T00:12:00.683Z,63.22
2018-09-30T00:14:29.278Z,62.22
2018-09-30T00:16:58.366Z,62.20
2018-09-30T00:19:27.062Z,62.82
2018-09-30T00:21:55.653Z,62.92
2018-09-30T00:24:29.555Z,62.03
2018-09-30T00:26:59.756Z,62.60
2018-09-30T00:29:29.766Z,62.93
2018-09-30T00:31:59.302Z,63.07
2018-09-30T00:34:29.006Z,62.65
2018-09-30T00:36:58.836Z,62.33
2018-09-30T00:39:28.098Z,62.79
2018-09-30T00:41:56.666Z,62.49
2018-09-30T00:44:25.403Z,62.01
2018-09-30T00:46:54.390Z,62.43
2018-09-30T00:49:23.041Z,63.06
2018-09-30T00:51:51.634Z,62.46
2018-09-30T00:54:20.328Z,63.19
2018-09-30T00:56:48.935Z,63.24
2018-09-30T00:59:17.643Z,63.22
2018-09-30T01:01:46.291Z,63.59
2018-09-30T01:04:14.883Z,63.08
2018-09-30T01:06:43.420Z,63.16
2018-09-30T01:09:14.614Z,62.96
2018-09-30T01:11:43.930Z,63.00
2018-09-30T01:14:12.601Z,62.49
2018-09-30T01:16:42.459Z,63.06
2018-09-30T01:19:11.346Z,62.88
2018-09-30T01:21:39.920Z,62.30
2018-09-30T01:24:08.707Z,62.52
2018-09-30T01:26:37.378Z,62.54
2018-09-30T01:29:06.198Z,62.73
2018-09-30T01:31:34.971Z,62.88
2018-09-30T01:34:04.217Z,62.70
2018-09-30T01:36:32.853Z,62.89
2018-09-30T01:39:01.896Z,62.82
2018-09-30T01:41:30.416Z,63.16
2018-09-30T01:43:59.232Z,63.13
2018-09-30T01:46:27.794Z,63.03
2018-09-30T01:48:56.445Z,63.20
2018-09-30T01:51:24.975Z,63.32
2018-09-30T01:53:53.554Z,63.07
2018-09-30T01:56:22.191Z,63.22
2018-09-30T01:58:50.746Z,62.97
2018-09-30T02:01:19.314Z,62.89
2018-09-30T02:03:47.851Z,63.03
2018-09-30T02:06:16.437Z,63.05
2018-09-30T02:08:44.926Z,62.98
2018-09-30T02:11:13.511Z,63.64
2018-09-30T02:13:42.392Z,63.42
2018-09-30T02:16:11.020Z,63.08
2018-09-30T02:18:40.100Z,63.85
2018-09-30T02:21:08.778Z,63.97
2018-09-30T02:23:37.428Z,64.12
2018-09-30T02:26:06.072Z,64.31
2018-09-30T02:28:34.716Z,64.53
2018-09-30T02:31:03.441Z,64.56
2018-09-30T02:33:32.102Z,64.35
2018-09-30T02:36:00.792Z,64.26
2018-09-30T02:38:29.429Z,64.34
2018-09-30T02:40:58.017Z,64.22
2018-09-30T02:43:26.625Z,64.17
2018-09-30T02:45:55.246Z,64.26
2018-09-30T02:48:23.921Z,64.34
2018-09-30T02:50:52.516Z,64.86
2018-09-30T02:53:21.304Z,64.56
2018-09-30T02:55:50.081Z,64.56
2018-09-30T02:58:18.740Z,64.78
2018-09-30T03:00:47.484Z,64.69
2018-09-30T03:03:17.234Z,64.77
2018-09-30T03:05:46.014Z,64.28
2018-09-30T03:08:19.733Z,64.62
2018-09-30T03:10:48.386Z,65.05
2018-09-30T03:13:17.087Z,65.09
2018-09-30T03:15:45.819Z,65.10
2018-09-30T03:18:14.717Z,65.13
2018-09-30T03:20:43.314Z,65.19
2018-09-30T03:23:11.971Z,65.43
2018-09-30T03:25:40.609Z,65.44
2018-09-30T03:28:09.130Z,65.45
2018-09-30T03:30:37.637Z,65.49
2018-09-30T03:33:06.394Z,65.37
2018-09-30T03:35:34.979Z,65.17
2018-09-30T03:38:04.333Z,65.31
2018-09-30T03:40:32.906Z,65.52
2018-09-30T03:43:01.695Z,65.76
2018-09-30T03:45:30.251Z,66.00
2018-09-30T03:47:58.951Z,65.57
2018-09-30T03:50:27.674Z,64.94
2018-09-30T03:52:56.329Z,64.74
2018-09-30T03:55:24.996Z,65.14
2018-09-30T03:57:53.553Z,65.41
2018-09-30T04:00:22.328Z,65.40
2018-09-30T04:02:50.951Z,65.40
2018-09-30T04:05:19.570Z,65.87
2018-09-30T04:07:48.132Z,65.82
2018-09-30T04:10:16.874Z,65.53
2018-09-30T04:12:45.395Z,65.35
2018-09-30T04:15:14.017Z,65.90
2018-09-30T04:17:42.630Z,65.59
2018-09-30T04:20:11.839Z,65.59
2018-09-30T04:22:40.641Z,65.64
2018-09-30T04:25:09.175Z,65.92
2018-09-30T04:27:37.830Z,65.56
2018-09-30T04:30:06.397Z,65.61
2018-09-30T04:32:34.933Z,65.67
2018-09-30T04:35:03.908Z,66.18
2018-09-30T04:37:32.592Z,65.87
2018-09-30T04:40:01.465Z,65.78
2018-09-30T04:42:30.001Z,65.87
2018-09-30T04:44:58.551Z,65.72
2018-09-30T04:47:27.257Z,65.84
2018-09-30T04:49:55.899Z,66.26
2018-09-30T04:52:24.587Z,65.97
2018-09-30T04:54:53.257Z,66.11
2018-09-30T04:57:21.794Z,66.19
2018-09-30T04:59:50.425Z,66.46
2018-09-30T05:02:18.986Z,66.11
2018-09-30T05:04:47.783Z,66.23
2018-09-30T05:07:16.337Z,66.31
2018-09-30T05:09:45.135Z,66.56
2018-09-30T05:12:13.908Z,66.33
2018-09-30T05:14:42.576Z,66.66
2018-09-30T05:17:11.233Z,66.52
2018-09-30T05:19:39.934Z,66.31
2018-09-30T05:22:08.519Z,66.36
2018-09-30T05:24:37.193Z,66.44
2018-09-30T05:27:05.891Z,66.06
2018-09-30T05:29:34.507Z,66.43
2018-09-30T05:32:03.362Z,66.39
2018-09-30T05:34:31.859Z,66.41
2018-09-30T05:37:00.504Z,66.59
2018-09-30T05:39:29.162Z,66.64
2018-09-30T05:41:57.763Z,66.83
2018-09-30T05:44:26.329Z,66.51
2018-09-30T05:46:54.932Z,67.17
2018-09-30T05:49:23.536Z,66.90
2018-09-30T05:51:52.176Z,66.82
2018-09-30T05:54:20.912Z,67.22
2018-09-30T05:56:49.608Z,67.18
2018-09-30T05:59:18.496Z,67.00
2018-09-30T06:01:47.110Z,67.10
2018-09-30T06:04:15.923Z,66.82
2018-09-30T06:06:44.852Z,66.58
2018-09-30T06:09:14.872Z,66.97
2018-09-30T06:11:45.261Z,66.58
2018-09-30T06:14:15.187Z,66.61
2018-09-30T06:16:44.223Z,66.44
2018-09-30T06:19:12.870Z,66.15
2018-09-30T06:21:42.075Z,66.00
2018-09-30T06:24:11.747Z,65.18
2018-09-30T06:26:40.942Z,65.15
2018-09-30T06:29:09.631Z,64.94
2018-09-30T06:31:38.433Z,65.25
2018-09-30T06:34:07.131Z,64.27
2018-09-30T06:36:35.748Z,64.52
2018-09-30T06:39:06.304Z,64.18
2018-09-30T06:41:34.812Z,63.29
2018-09-30T06:44:03.645Z,63.14
2018-09-30T06:46:32.215Z,63.53
2018-09-30T06:49:00.926Z,62.68
2018-09-30T06:51:29.541Z,62.41
2018-09-30T06:53:58.155Z,62.71
2018-09-30T06:56:26.758Z,62.29
2018-09-30T06:58:55.369Z,61.80
2018-09-30T07:01:24.625Z,61.39
2018-09-30T07:03:53.201Z,61.25
2018-09-30T07:06:21.763Z,61.37
2018-09-30T07:08:50.448Z,61.22
2018-09-30T07:11:19.205Z,60.89
2018-09-30T07:13:47.740Z,60.89
2018-09-30T07:16:16.398Z,60.54
2018-09-30T07:18:44.989Z,60.73
2018-09-30T07:21:13.695Z,60.75
2018-09-30T07:23:42.179Z,60.92
2018-09-30T07:26:10.714Z,60.05
2018-09-30T07:28:39.515Z,59.99
2018-09-30T07:31:08.230Z,60.25
2018-09-30T07:33:36.811Z,59.92
2018-09-30T07:36:05.474Z,60.19
2018-09-30T07:38:34.412Z,59.93
2018-09-30T07:41:03.225Z,60.07
2018-09-30T07:43:31.830Z,59.81
2018-09-30T07:46:00.572Z,59.99
2018-09-30T07:48:29.216Z,59.67
2018-09-30T07:50:57.875Z,59.54
2018-09-30T07:53:26.575Z,59.43
2018-09-30T07:55:55.289Z,59.35
2018-09-30T07:58:24.186Z,59.47
2018-09-30T08:00:52.923Z,59.09
2018-09-30T08:03:21.650Z,59.10
2018-09-30T08:05:50.782Z,58.92
2018-09-30T08:08:19.598Z,58.18
2018-09-30T08:10:48.372Z,58.24
2018-09-30T08:13:17.165Z,58.30
2018-09-30T08:15:46.358Z,58.02
2018-09-30T08:18:15.178Z,58.08
2018-09-30T08:20:43.936Z,58.34
2018-09-30T08:23:12.643Z,58.37
2018-09-30T08:25:41.281Z,57.56
2018-09-30T08:28:09.962Z,58.03
2018-09-30T08:30:38.859Z,57.98
2018-09-30T08:33:07.504Z,57.78
2018-09-30T08:35:36.075Z,57.26
2018-09-30T08:38:11.122Z,57.09
2018-09-30T08:40:44.825Z,56.87
2018-09-30T08:43:13.519Z,56.86
2018-09-30T08:45:42.206Z,56.59
2018-09-30T08:48:10.775Z,56.69
2018-09-30T08:50:39.532Z,56.61
2018-09-30T08:53:08.288Z,56.16
2018-09-30T08:55:36.912Z,55.20
2018-09-30T08:58:05.544Z,55.21
2018-09-30T09:00:34.550Z,55.38
2018-09-30T09:03:03.676Z,55.57
2018-09-30T09:05:32.492Z,55.09
2018-09-30T09:08:02.387Z,55.33
2018-09-30T09:10:31.057Z,54.76
2018-09-30T09:13:00.282Z,55.05
2018-09-30T09:15:29.155Z,55.05
2018-09-30T09:17:57.742Z,54.54
2018-09-30T09:20:26.350Z,53.84
2018-09-30T09:22:54.958Z,53.03
2018-09-30T09:25:23.696Z,53.76
2018-09-30T09:27:52.387Z,52.86
2018-09-30T09:30:21.182Z,52.02
2018-09-30T09:32:49.920Z,51.43
2018-09-30T09:35:18.648Z,51.48
2018-09-30T09:37:47.373Z,50.60
2018-09-30T09:40:16.087Z,51.17
2018-09-30T09:42:44.872Z,50.93
2018-09-30T09:45:13.604Z,51.31
2018-09-30T09:47:42.201Z,50.87
2018-09-30T09:50:10.961Z,50.18
2018-09-30T09:52:39.675Z,50.30
2018-09-30T09:55:08.385Z,49.33
2018-09-30T09:57:37.128Z,49.99
2018-09-30T10:00:06.553Z,49.79
2018-09-30T10:02:35.379Z,49.25
2018-09-30T10:05:04.135Z,49.12
2018-09-30T10:07:32.903Z,48.48
2018-09-30T10:10:01.794Z,47.56
2018-09-30T10:12:30.605Z,46.62
2018-09-30T10:14:59.354Z,47.19
2018-09-30T10:17:28.015Z,45.80
2018-09-30T10:19:56.631Z,46.07
2018-09-30T10:22:25.397Z,46.03
2018-09-30T10:24:54.035Z,46.18
2018-09-30T10:27:22.722Z,46.09
2018-09-30T10:29:51.342Z,45.90
2018-09-30T10:32:20.039Z,45.83
2018-09-30T10:34:48.625Z,45.36
2018-09-30T10:37:17.182Z,45.05
2018-09-30T10:39:46.249Z,45.36
2018-09-30T10:42:14.835Z,45.25
2018-09-30T10:44:43.779Z,45.46
2018-09-30T10:47:12.381Z,44.60
2018-09-30T10:49:41.004Z,44.10
2018-09-30T10:52:09.594Z,43.33
2018-09-30T10:54:38.342Z,43.05
2018-09-30T10:57:07.121Z,43.15
2018-09-30T10:59:35.860Z,43.07
2018-09-30T11:02:04.475Z,42.98
2018-09-30T11:04:33.100Z,42.78
2018-09-30T11:07:08.098Z,43.62
2018-09-30T11:09:36.797Z,43.01
2018-09-30T11:12:05.515Z,42.28
2018-09-30T11:14:34.211Z,41.85
2018-09-30T11:17:03.782Z,42.33
2018-09-30T11:19:32.428Z,42.23
2018-09-30T11:22:01.667Z,41.62
2018-09-30T11:24:30.351Z,43.05
2018-09-30T11:26:59.100Z,41.70
2018-09-30T11:29:27.771Z,41.12
2018-09-30T11:31:56.486Z,42.12
2018-09-30T11:34:25.161Z,41.78
2018-09-30T11:36:53.756Z,40.82
2018-09-30T11:39:22.488Z,40.54
2018-09-30T11:41:51.051Z,40.56
2018-09-30T11:44:19.621Z,37.88
2018-09-30T11:46:48.255Z,38.76
2018-09-30T11:49:16.953Z,38.64
2018-09-30T11:51:45.617Z,38.94
2018-09-30T11:54:14.281Z,39.13
2018-09-30T11:56:43.496Z,39.00
2018-09-30T11:59:12.246Z,37.55
2018-09-30T12:01:41.062Z,38.91
2018-09-30T12:04:09.737Z,37.06
2018-09-30T12:06:38.252Z,37.61
2018-09-30T12:09:08.846Z,37.74
2018-09-30T12:11:37.745Z,37.72
2018-09-30T12:14:06.653Z,37.47
2018-09-30T12:16:39.485Z,35.72
2018-09-30T12:19:08.123Z,36.45
2018-09-30T12:21:36.783Z,36.30
2018-09-30T12:24:05.467Z,35.99
2018-09-30T12:26:34.037Z,37.56
2018-09-30T12:29:02.972Z,36.46
2018-09-30T12:31:31.605Z,35.69
2018-09-30T12:34:00.301Z,35.40
2018-09-30T12:36:29.030Z,35.60
2018-09-30T12:38:57.698Z,35.92
2018-09-30T12:41:26.415Z,35.50
2018-09-30T12:43:55.059Z,34.52
2018-09-30T12:46:23.751Z,34.00
2018-09-30T12:48:52.523Z,34.47
2018-09-30T12:51:21.032Z,34.42
2018-09-30T12:53:49.623Z,33.46
2018-09-30T12:56:18.398Z,33.61
2018-09-30T12:58:47.069Z,33.68
2018-09-30T13:01:15.712Z,32.64
2018-09-30T13:03:44.466Z,32.95
2018-09-30T13:06:13.572Z,33.27
2018-09-30T13:08:42.242Z,33.26
2018-09-30T13:11:10.915Z,33.83
2018-09-30T13:13:39.464Z,33.64
2018-09-30T13:16:08.120Z,32.43
2018-09-30T13:18:36.752Z,32.91
2018-09-30T13:21:05.640Z,33.17
2018-09-30T13:23:34.209Z,32.64
2018-09-30T13:26:03.893Z,32.91
2018-09-30T13:28:32.545Z,34.03
2018-09-30T13:31:01.543Z,33.38
2018-09-30T13:33:30.220Z,33.24
2018-09-30T13:35:58.833Z,32.39
2018-09-30T13:38:27.556Z,32.93
2018-09-30T13:40:56.271Z,33.67
2018-09-30T13:43:24.931Z,34.53
2018-09-30T13:45:53.660Z,33.78
2018-09-30T13:48:22.252Z,33.25
2018-09-30T13:50:50.924Z,33.53
2018-09-30T13:56:04.177Z,33.54
2018-09-30T13:58:32.821Z,32.83
2018-09-30T14:01:02.638Z,34.82
2018-09-30T14:03:31.382Z,34.34
2018-09-30T14:06:00.105Z,34.69
2018-09-30T14:08:28.923Z,34.73
2018-09-30T14:10:57.615Z,35.33
2018-09-30T14:13:26.155Z,35.52
2018-09-30T14:15:54.808Z,36.19
2018-09-30T14:18:23.384Z,35.31
2018-09-30T14:20:52.013Z,35.57
2018-09-30T14:23:20.640Z,35.36
2018-09-30T14:25:49.306Z,35.93
2018-09-30T14:28:18.011Z,35.61
2018-09-30T14:30:46.979Z,35.25
2018-09-30T14:33:15.829Z,35.15
2018-09-30T14:35:44.704Z,36.21
2018-09-30T14:38:13.336Z,35.96
2018-09-30T14:40:41.971Z,36.60
2018-09-30T14:43:10.753Z,36.29
2018-09-30T14:45:39.423Z,36.71
2018-09-30T14:48:08.256Z,35.62
2018-09-30T14:50:36.943Z,35.63
2018-09-30T14:53:05.530Z,35.19
2018-09-30T14:55:34.240Z,35.29
2018-09-30T14:58:03.769Z,35.67
2018-09-30T15:00:32.413Z,35.23
2018-09-30T15:03:00.968Z,34.92
2018-09-30T15:05:29.520Z,33.46
2018-09-30T15:07:58.285Z,33.86
2018-09-30T15:10:27.008Z,33.87
2018-09-30T15:12:56.419Z,34.19
2018-09-30T15:15:25.152Z,34.03
2018-09-30T15:17:53.679Z,34.17
2018-09-30T15:20:22.353Z,34.47
2018-09-30T15:22:50.849Z,34.54
2018-09-30T15:25:19.654Z,34.55
2018-09-30T15:27:48.256Z,34.65
2018-09-30T15:30:17.267Z,35.04
2018-09-30T15:32:46.252Z,34.32
2018-09-30T15:35:14.804Z,35.17
2018-09-30T15:37:43.729Z,35.21
2018-09-30T15:40:13.096Z,35.53
2018-09-30T15:42:41.763Z,35.77
2018-09-30T15:45:11.006Z,35.98
2018-09-30T15:47:39.669Z,35.35
2018-09-30T15:50:08.375Z,35.74
2018-09-30T15:52:37.096Z,36.60
2018-09-30T15:55:05.817Z,36.58
2018-09-30T15:57:34.468Z,37.52
2018-09-30T16:00:03.792Z,37.35
2018-09-30T16:02:32.565Z,37.57
2018-09-30T16:05:01.783Z,37.44
2018-09-30T16:07:30.453Z,37.32
2018-09-30T16:09:59.194Z,37.87
2018-09-30T16:12:27.745Z,38.48
2018-09-30T16:14:56.447Z,37.82
2018-09-30T16:17:25.169Z,37.90
2018-09-30T16:19:53.787Z,37.54
2018-09-30T16:22:22.513Z,38.13
2018-09-30T16:24:51.304Z,38.34
2018-09-30T16:27:19.920Z,38.07
2018-09-30T16:29:48.471Z,38.59
2018-09-30T16:32:17.166Z,38.53
2018-09-30T16:34:45.840Z,39.15
2018-09-30T16:37:14.501Z,39.13
2018-09-30T16:39:43.278Z,39.06
2018-09-30T16:42:11.860Z,39.48
2018-09-30T16:44:40.606Z,39.46
2018-09-30T16:47:09.248Z,40.10
2018-09-30T16:49:37.909Z,40.06
2018-09-30T16:52:06.602Z,40.35
2018-09-30T16:54:35.196Z,40.51
2018-09-30T16:57:03.832Z,40.34
2018-09-30T16:59:32.351Z,39.91
2018-09-30T17:02:00.954Z,40.22
2018-09-30T17:04:29.658Z,39.78
2018-09-30T17:06:58.231Z,40.69
2018-09-30T17:09:26.783Z,40.86
2018-09-30T17:11:55.426Z,40.83
2018-09-30T17:14:24.284Z,40.79
2018-09-30T17:16:53.033Z,41.29
2018-09-30T17:19:21.621Z,41.27
2018-09-30T17:21:50.230Z,41.09
2018-09-30T17:24:18.988Z,41.48
2018-09-30T17:26:47.983Z,41.67
2018-09-30T17:29:18.102Z,41.14
2018-09-30T17:31:46.723Z,41.39
2018-09-30T17:34:15.438Z,41.08
2018-09-30T17:36:44.084Z,41.12
2018-09-30T17:39:12.901Z,41.17
2018-09-30T17:41:41.636Z,41.26
2018-09-30T17:44:10.249Z,41.22
2018-09-30T17:46:38.989Z,41.10
2018-09-30T17:49:07.616Z,41.36
2018-09-30T17:51:36.403Z,41.99
2018-09-30T17:54:05.219Z,41.20
2018-09-30T17:56:33.882Z,41.57
2018-09-30T17:59:02.769Z,41.92
2018-09-30T18:01:31.399Z,41.96
2018-09-30T18:04:00.199Z,41.88
2018-09-30T18:06:28.994Z,41.88
2018-09-30T18:08:57.591Z,41.50
2018-09-30T18:11:26.138Z,42.34
2018-09-30T18:13:54.778Z,43.23
2018-09-30T18:16:23.423Z,42.60
2018-09-30T18:18:51.980Z,43.03
2018-09-30T18:21:20.513Z,43.20
2018-09-30T18:23:49.294Z,44.48
2018-09-30T18:26:17.948Z,45.42
2018-09-30T18:28:46.814Z,46.06
2018-09-30T18:31:15.553Z,46.62
2018-09-30T18:36:26.850Z,47.30
2018-09-30T18:38:55.584Z,47.49
2018-09-30T18:41:24.140Z,48.35
2018-09-30T18:43:52.941Z,48.22
2018-09-30T18:46:21.636Z,48.66
2018-09-30T18:48:50.222Z,49.43
2018-09-30T18:51:18.809Z,48.85
2018-09-30T18:53:47.625Z,49.89
2018-09-30T18:56:16.438Z,49.79
2018-09-30T18:58:44.956Z,50.61
2018-09-30T19:01:13.557Z,50.85
2018-09-30T19:03:42.137Z,51.06
2018-09-30T19:06:10.825Z,51.48
2018-09-30T19:08:39.414Z,51.96
2018-09-30T19:11:08.132Z,52.26
2018-09-30T19:13:36.875Z,52.60
2018-09-30T19:16:05.929Z,53.10
2018-09-30T19:18:34.603Z,53.64
2018-09-30T19:21:03.645Z,53.83
2018-09-30T19:23:32.264Z,54.25
2018-09-30T19:26:01.034Z,54.41
2018-09-30T19:28:29.710Z,54.69
2018-09-30T19:30:58.387Z,54.78
2018-09-30T19:33:26.955Z,55.65
2018-09-30T19:35:55.672Z,55.47
2018-09-30T19:38:24.397Z,56.14
2018-09-30T19:40:53.684Z,54.45
2018-09-30T19:43:23.245Z,55.68
2018-09-30T19:45:52.052Z,56.28
2018-09-30T19:48:20.836Z,56.00
2018-09-30T19:50:49.757Z,56.10
2018-09-30T19:53:18.599Z,56.15
2018-09-30T19:55:47.252Z,56.20
2018-09-30T19:58:15.890Z,56.28
2018-09-30T20:00:44.552Z,56.36
2018-09-30T20:03:13.191Z,56.01
2018-09-30T20:05:41.906Z,56.41
2018-09-30T20:08:10.566Z,56.58
2018-09-30T20:10:39.467Z,57.30
2018-09-30T20:13:08.079Z,57.59
2018-09-30T20:15:36.724Z,57.69
2018-09-30T20:18:05.480Z,58.08
2018-09-30T20:20:34.226Z,58.15
2018-09-30T20:23:04.386Z,58.66
2018-09-30T20:25:33.002Z,58.30
2018-09-30T20:28:02.293Z,58.99
2018-09-30T20:30:30.968Z,59.67
2018-09-30T20:32:59.621Z,59.61
2018-09-30T20:35:28.344Z,59.71
2018-09-30T20:37:57.090Z,59.49
2018-09-30T20:40:25.817Z,59.94
2018-09-30T20:42:54.406Z,59.94
2018-09-30T20:45:23.021Z,59.83
2018-09-30T20:47:51.627Z,60.02
2018-09-30T20:50:20.302Z,59.78
2018-09-30T20:52:49.046Z,60.68
2018-09-30T20:55:17.735Z,59.99
2018-09-30T20:57:46.495Z,59.18
2018-09-30T21:00:15.279Z,59.13
2018-09-30T21:02:44.061Z,59.35
2018-09-30T21:05:25.271Z,59.36
2018-09-30T21:07:54.204Z,59.52
2018-09-30T21:10:22.812Z,59.74
2018-09-30T21:12:51.457Z,59.81
2018-09-30T21:15:20.276Z,60.35
2018-09-30T21:17:48.854Z,60.19
2018-09-30T21:20:17.471Z,60.03
2018-09-30T21:22:46.160Z,60.07
2018-09-30T21:25:14.865Z,60.34
2018-09-30T21:27:43.484Z,60.48
2018-09-30T21:30:12.122Z,59.89
2018-09-30T21:32:40.816Z,60.20
2018-09-30T21:35:09.548Z,60.47
2018-09-30T21:37:38.365Z,60.40
2018-09-30T21:40:07.147Z,60.59
2018-09-30T21:42:35.969Z,60.61
2018-09-30T21:45:04.725Z,60.71
2018-09-30T21:47:33.550Z,60.84
2018-09-30T21:50:03.460Z,60.72
2018-09-30T21:52:32.201Z,60.70
2018-09-30T21:55:01.101Z,60.34
2018-09-30T21:57:29.675Z,60.72
2018-09-30T21:59:58.226Z,60.94
2018-09-30T22:02:26.874Z,60.71
2018-09-30T22:04:55.549Z,60.87
2018-09-30T22:07:24.164Z,60.98
2018-09-30T22:09:52.715Z,61.62
2018-09-30T22:12:21.320Z,61.96
2018-09-30T22:14:50.203Z,62.51
2018-09-30T22:17:19.015Z,62.47
2018-09-30T22:19:47.582Z,63.13
2018-09-30T22:22:16.263Z,63.48
2018-09-30T22:24:44.812Z,63.95
2018-09-30T22:27:13.595Z,63.92
2018-09-30T22:29:42.169Z,64.18
2018-09-30T22:32:10.763Z,63.85
2018-09-30T22:34:39.291Z,64.59
2018-09-30T22:37:07.828Z,64.39
2018-09-30T22:39:36.502Z,64.38
2018-09-30T22:42:05.303Z,64.53
2018-09-30T22:44:34.021Z,64.72
2018-09-30T22:47:02.685Z,64.79
2018-09-30T22:49:31.155Z,64.94
2018-09-30T22:51:59.806Z,64.93
2018-09-30T22:54:28.476Z,64.94
2018-09-30T22:56:57.148Z,64.70
2018-09-30T22:59:25.985Z,64.91
2018-09-30T23:01:54.583Z,64.79
2018-09-30T23:04:23.196Z,64.93
2018-09-30T23:06:51.998Z,64.92
2018-09-30T23:09:20.603Z,65.16
2018-09-30T23:11:49.288Z,65.36
2018-09-30T23:14:17.883Z,65.33
2018-09-30T23:16:46.534Z,65.45
2018-09-30T23:19:15.195Z,65.43
2018-09-30T23:21:43.822Z,65.46
2018-09-30T23:24:12.604Z,65.68
2018-09-30T23:26:41.127Z,65.95
2018-09-30T23:31:37.513Z,66.01
2018-09-30T23:34:06.533Z,66.05
2018-09-30T23:36:35.145Z,66.01
2018-09-30T23:39:04.915Z,65.94
2018-09-30T23:41:33.548Z,66.00
2018-09-30T23:44:02.758Z,66.08
2018-09-30T23:46:31.337Z,66.28
2018-09-30T23:49:00.024Z,66.14
2018-09-30T23:51:28.685Z,66.48
2018-09-30T23:53:57.362Z,66.25
2018-09-30T23:56:26.012Z,66.21
2018-09-30T23:58:54.562Z,66.10
